sensor_id;sensor_type;location;lat;lon;timestamp;temperature;humidity
19952;DHT22;10137;49.406;19.484;2024-03-02T00:01:31;6.60;99.90
19952;DHT22;10137;49.406;19.484;2024-03-02T00:03:58;6.60;99.90
19952;DHT22;10137;49.406;19.484;2024-03-02T00:06:25;6.60;99.90
19952;DHT22;10137;49.406;19.484;2024-03-02T00:08:57;6.60;99.90
19952;DHT22;10137;49.406;19.484;2024-03-02T00:11:24;6.70;99.90
19952;DHT22;10137;49.406;19.484;2024-03-02T00:13:53;6.70;99.90
19952;DHT22;10137;49.406;19.484;2024-03-02T00:16:19;6.50;99.90
19952;DHT22;10137;49.406;19.484;2024-03-02T00:18:48;6.50;99.90
19952;DHT22;10137;49.406;19.484;2024-03-02T00:21:15;6.50;99.90
19952;DHT22;10137;49.406;19.484;2024-03-02T00:23:45;6.50;99.90
19952;DHT22;10137;49.406;19.484;2024-03-02T00:26:12;6.50;99.90
19952;DHT22;10137;49.406;19.484;2024-03-02T00:28:40;6.50;99.90
19952;DHT22;10137;49.406;19.484;2024-03-02T00:31:10;6.40;99.90
19952;DHT22;10137;49.406;19.484;2024-03-02T00:33:41;6.30;99.90
19952;DHT22;10137;49.406;19.484;2024-03-02T00:36:11;6.40;99.90
19952;DHT22;10137;49.406;19.484;2024-03-02T00:38:45;6.50;99.90
19952;DHT22;10137;49.406;19.484;2024-03-02T00:41:17;6.50;99.90
19952;DHT22;10137;49.406;19.484;2024-03-02T00:43:47;6.40;99.90
19952;DHT22;10137;49.406;19.484;2024-03-02T00:46:18;6.30;99.90
19952;DHT22;10137;49.406;19.484;2024-03-02T00:48:52;6.40;99.90
19952;DHT22;10137;49.406;19.484;2024-03-02T00:51:21;6.50;99.90
19952;DHT22;10137;49.406;19.484;2024-03-02T00:53:49;6.40;99.90
19952;DHT22;10137;49.406;19.484;2024-03-02T00:56:18;6.40;99.90
19952;DHT22;10137;49.406;19.484;2024-03-02T00:58:45;6.30;99.90
19952;DHT22;10137;49.406;19.484;2024-03-02T01:01:11;6.30;99.90
19952;DHT22;10137;49.406;19.484;2024-03-02T01:03:39;6.40;99.90
19952;DHT22;10137;49.406;19.484;2024-03-02T01:06:07;6.30;99.90
19952;DHT22;10137;49.406;19.484;2024-03-02T01:08:35;6.30;99.90
19952;DHT22;10137;49.406;19.484;2024-03-02T01:11:03;6.40;99.90
19952;DHT22;10137;49.406;19.484;2024-03-02T01:13:30;6.40;99.90
19952;DHT22;10137;49.406;19.484;2024-03-02T01:15:57;6.60;99.90
19952;DHT22;10137;49.406;19.484;2024-03-02T01:18:25;6.50;99.90
19952;DHT22;10137;49.406;19.484;2024-03-02T01:20:52;6.50;99.90
19952;DHT22;10137;49.406;19.484;2024-03-02T01:23:21;6.50;99.90
19952;DHT22;10137;49.406;19.484;2024-03-02T01:25:49;6.50;99.90
19952;DHT22;10137;49.406;19.484;2024-03-02T01:28:17;6.50;99.90
19952;DHT22;10137;49.406;19.484;2024-03-02T01:30:44;6.40;99.90
19952;DHT22;10137;49.406;19.484;2024-03-02T01:33:11;6.40;99.90
19952;DHT22;10137;49.406;19.484;2024-03-02T01:35:38;6.30;99.90
19952;DHT22;10137;49.406;19.484;2024-03-02T01:38:05;6.30;99.90
19952;DHT22;10137;49.406;19.484;2024-03-02T01:40:33;6.30;99.90
19952;DHT22;10137;49.406;19.484;2024-03-02T01:43:01;6.30;99.90
19952;DHT22;10137;49.406;19.484;2024-03-02T01:45:29;6.30;99.90
19952;DHT22;10137;49.406;19.484;2024-03-02T01:47:55;6.30;99.90
19952;DHT22;10137;49.406;19.484;2024-03-02T01:50:27;6.30;99.90
19952;DHT22;10137;49.406;19.484;2024-03-02T01:52:54;6.30;99.90
19952;DHT22;10137;49.406;19.484;2024-03-02T01:55:21;6.30;99.90
19952;DHT22;10137;49.406;19.484;2024-03-02T01:57:48;6.30;99.90
19952;DHT22;10137;49.406;19.484;2024-03-02T02:00:18;6.40;99.90
19952;DHT22;10137;49.406;19.484;2024-03-02T02:02:45;6.40;99.90
19952;DHT22;10137;49.406;19.484;2024-03-02T02:05:12;6.40;99.90
19952;DHT22;10137;49.406;19.484;2024-03-02T02:07:40;6.30;99.90
19952;DHT22;10137;49.406;19.484;2024-03-02T02:10:08;6.20;99.90
19952;DHT22;10137;49.406;19.484;2024-03-02T02:12:35;6.10;99.90
19952;DHT22;10137;49.406;19.484;2024-03-02T02:15:02;6.10;99.90
19952;DHT22;10137;49.406;19.484;2024-03-02T02:17:31;6.00;99.90
19952;DHT22;10137;49.406;19.484;2024-03-02T02:19:57;6.00;99.90
19952;DHT22;10137;49.406;19.484;2024-03-02T02:22:26;6.00;99.90
19952;DHT22;10137;49.406;19.484;2024-03-02T02:24:52;6.00;99.90
19952;DHT22;10137;49.406;19.484;2024-03-02T02:27:20;5.90;99.90
19952;DHT22;10137;49.406;19.484;2024-03-02T02:29:47;6.00;99.90
19952;DHT22;10137;49.406;19.484;2024-03-02T02:32:13;5.90;99.90
19952;DHT22;10137;49.406;19.484;2024-03-02T02:34:40;5.90;99.90
19952;DHT22;10137;49.406;19.484;2024-03-02T02:37:07;5.90;99.90
19952;DHT22;10137;49.406;19.484;2024-03-02T02:39:35;5.90;99.90
19952;DHT22;10137;49.406;19.484;2024-03-02T02:42:02;5.90;99.90
19952;DHT22;10137;49.406;19.484;2024-03-02T02:44:29;5.90;99.90
19952;DHT22;10137;49.406;19.484;2024-03-02T02:46:56;5.90;99.90
19952;DHT22;10137;49.406;19.484;2024-03-02T02:49:23;5.90;99.90
19952;DHT22;10137;49.406;19.484;2024-03-02T02:51:50;6.00;99.90
19952;DHT22;10137;49.406;19.484;2024-03-02T02:54:17;5.90;99.90
19952;DHT22;10137;49.406;19.484;2024-03-02T02:56:45;5.90;99.90
19952;DHT22;10137;49.406;19.484;2024-03-02T02:59:12;5.80;99.90
19952;DHT22;10137;49.406;19.484;2024-03-02T03:01:39;5.80;99.90
19952;DHT22;10137;49.406;19.484;2024-03-02T03:04:06;5.80;99.90
19952;DHT22;10137;49.406;19.484;2024-03-02T03:06:33;5.80;99.90
19952;DHT22;10137;49.406;19.484;2024-03-02T03:09:00;5.70;99.90
19952;DHT22;10137;49.406;19.484;2024-03-02T03:11:27;5.70;99.90
19952;DHT22;10137;49.406;19.484;2024-03-02T03:13:56;5.70;99.90
19952;DHT22;10137;49.406;19.484;2024-03-02T03:16:23;5.70;99.90
19952;DHT22;10137;49.406;19.484;2024-03-02T03:18:50;5.80;99.90
19952;DHT22;10137;49.406;19.484;2024-03-02T03:21:19;5.80;99.90
19952;DHT22;10137;49.406;19.484;2024-03-02T03:23:45;5.80;99.90
19952;DHT22;10137;49.406;19.484;2024-03-02T03:26:12;5.70;99.90
19952;DHT22;10137;49.406;19.484;2024-03-02T03:28:39;5.70;99.90
19952;DHT22;10137;49.406;19.484;2024-03-02T03:31:07;5.80;99.90
19952;DHT22;10137;49.406;19.484;2024-03-02T03:33:34;5.80;99.90
19952;DHT22;10137;49.406;19.484;2024-03-02T03:36:01;5.80;99.90
19952;DHT22;10137;49.406;19.484;2024-03-02T03:38:29;5.80;99.90
19952;DHT22;10137;49.406;19.484;2024-03-02T03:40:56;5.70;99.90
19952;DHT22;10137;49.406;19.484;2024-03-02T03:43:22;5.70;99.90
19952;DHT22;10137;49.406;19.484;2024-03-02T03:45:49;5.60;99.90
19952;DHT22;10137;49.406;19.484;2024-03-02T03:48:18;5.60;99.90
19952;DHT22;10137;49.406;19.484;2024-03-02T03:50:45;5.60;99.90
19952;DHT22;10137;49.406;19.484;2024-03-02T03:53:12;5.70;99.90
19952;DHT22;10137;49.406;19.484;2024-03-02T03:55:40;5.70;99.90
19952;DHT22;10137;49.406;19.484;2024-03-02T03:58:07;5.70;99.90
19952;DHT22;10137;49.406;19.484;2024-03-02T04:00:34;5.70;99.90
19952;DHT22;10137;49.406;19.484;2024-03-02T04:03:00;5.60;99.90
19952;DHT22;10137;49.406;19.484;2024-03-02T04:05:29;5.60;99.90
19952;DHT22;10137;49.406;19.484;2024-03-02T04:07:55;5.50;99.90
19952;DHT22;10137;49.406;19.484;2024-03-02T04:10:22;5.40;99.90
19952;DHT22;10137;49.406;19.484;2024-03-02T04:12:50;5.40;99.90
19952;DHT22;10137;49.406;19.484;2024-03-02T04:15:17;5.30;99.90
19952;DHT22;10137;49.406;19.484;2024-03-02T04:17:44;5.30;99.90
19952;DHT22;10137;49.406;19.484;2024-03-02T04:20:11;5.40;99.90
19952;DHT22;10137;49.406;19.484;2024-03-02T04:22:40;5.50;99.90
19952;DHT22;10137;49.406;19.484;2024-03-02T04:25:08;5.50;99.90
19952;DHT22;10137;49.406;19.484;2024-03-02T04:27:35;5.50;99.90
19952;DHT22;10137;49.406;19.484;2024-03-02T04:30:03;5.50;99.90
19952;DHT22;10137;49.406;19.484;2024-03-02T04:32:30;5.50;99.90
19952;DHT22;10137;49.406;19.484;2024-03-02T04:34:57;5.50;99.90
19952;DHT22;10137;49.406;19.484;2024-03-02T04:37:24;5.50;99.90
19952;DHT22;10137;49.406;19.484;2024-03-02T04:39:52;5.50;99.90
19952;DHT22;10137;49.406;19.484;2024-03-02T04:42:19;5.50;99.90
19952;DHT22;10137;49.406;19.484;2024-03-02T04:44:46;5.50;99.90
19952;DHT22;10137;49.406;19.484;2024-03-02T04:47:13;5.50;99.90
19952;DHT22;10137;49.406;19.484;2024-03-02T04:49:39;5.50;99.90
19952;DHT22;10137;49.406;19.484;2024-03-02T04:52:06;5.40;99.90
19952;DHT22;10137;49.406;19.484;2024-03-02T04:54:33;5.40;99.90
19952;DHT22;10137;49.406;19.484;2024-03-02T04:57:22;5.40;99.90
19952;DHT22;10137;49.406;19.484;2024-03-02T04:59:49;5.30;99.90
19952;DHT22;10137;49.406;19.484;2024-03-02T05:02:16;5.30;99.90
19952;DHT22;10137;49.406;19.484;2024-03-02T05:04:43;5.30;99.90
19952;DHT22;10137;49.406;19.484;2024-03-02T05:07:09;5.30;99.90
19952;DHT22;10137;49.406;19.484;2024-03-02T05:09:36;5.30;99.90
19952;DHT22;10137;49.406;19.484;2024-03-02T05:12:03;5.30;99.90
19952;DHT22;10137;49.406;19.484;2024-03-02T05:14:49;5.30;99.90
19952;DHT22;10137;49.406;19.484;2024-03-02T05:17:16;5.30;99.90
19952;DHT22;10137;49.406;19.484;2024-03-02T05:19:43;5.20;99.90
19952;DHT22;10137;49.406;19.484;2024-03-02T05:22:10;5.30;99.90
19952;DHT22;10137;49.406;19.484;2024-03-02T05:24:37;5.20;99.90
19952;DHT22;10137;49.406;19.484;2024-03-02T05:27:04;5.20;99.90
19952;DHT22;10137;49.406;19.484;2024-03-02T05:29:31;5.10;99.90
19952;DHT22;10137;49.406;19.484;2024-03-02T05:32:00;5.10;99.90
19952;DHT22;10137;49.406;19.484;2024-03-02T05:34:27;5.10;99.90
19952;DHT22;10137;49.406;19.484;2024-03-02T05:36:54;5.10;99.90
19952;DHT22;10137;49.406;19.484;2024-03-02T05:39:21;5.20;99.90
19952;DHT22;10137;49.406;19.484;2024-03-02T05:41:48;5.20;99.90
19952;DHT22;10137;49.406;19.484;2024-03-02T05:44:15;5.20;99.90
19952;DHT22;10137;49.406;19.484;2024-03-02T05:46:42;5.20;99.90
19952;DHT22;10137;49.406;19.484;2024-03-02T05:49:10;5.30;99.90
19952;DHT22;10137;49.406;19.484;2024-03-02T05:51:37;5.20;99.90
19952;DHT22;10137;49.406;19.484;2024-03-02T05:54:04;5.30;99.90
19952;DHT22;10137;49.406;19.484;2024-03-02T05:56:31;5.30;99.90
19952;DHT22;10137;49.406;19.484;2024-03-02T05:58:58;5.30;99.90
19952;DHT22;10137;49.406;19.484;2024-03-02T06:01:37;5.30;99.90
19952;DHT22;10137;49.406;19.484;2024-03-02T06:04:04;5.30;99.90
19952;DHT22;10137;49.406;19.484;2024-03-02T06:06:33;5.30;99.90
19952;DHT22;10137;49.406;19.484;2024-03-02T06:09:00;5.40;99.90
19952;DHT22;10137;49.406;19.484;2024-03-02T06:11:28;5.40;99.90
19952;DHT22;10137;49.406;19.484;2024-03-02T06:13:55;5.50;99.90
19952;DHT22;10137;49.406;19.484;2024-03-02T06:16:22;5.60;99.90
19952;DHT22;10137;49.406;19.484;2024-03-02T06:18:48;5.50;99.90
19952;DHT22;10137;49.406;19.484;2024-03-02T06:21:15;5.50;99.90
19952;DHT22;10137;49.406;19.484;2024-03-02T06:23:44;5.50;99.90
19952;DHT22;10137;49.406;19.484;2024-03-02T06:26:11;5.50;99.90
19952;DHT22;10137;49.406;19.484;2024-03-02T06:28:38;5.50;99.90
19952;DHT22;10137;49.406;19.484;2024-03-02T06:31:05;5.50;99.90
19952;DHT22;10137;49.406;19.484;2024-03-02T06:33:32;5.50;99.90
19952;DHT22;10137;49.406;19.484;2024-03-02T06:35:59;5.50;99.90
19952;DHT22;10137;49.406;19.484;2024-03-02T06:38:26;5.50;99.90
19952;DHT22;10137;49.406;19.484;2024-03-02T06:40:54;5.50;99.90
19952;DHT22;10137;49.406;19.484;2024-03-02T06:43:21;5.60;99.90
19952;DHT22;10137;49.406;19.484;2024-03-02T06:45:48;5.50;99.90
19952;DHT22;10137;49.406;19.484;2024-03-02T06:48:15;5.50;99.90
19952;DHT22;10137;49.406;19.484;2024-03-02T06:50:45;5.60;99.90
19952;DHT22;10137;49.406;19.484;2024-03-02T06:53:12;5.70;99.90
19952;DHT22;10137;49.406;19.484;2024-03-02T06:55:39;5.80;99.90
19952;DHT22;10137;49.406;19.484;2024-03-02T06:58:07;5.90;99.90
19952;DHT22;10137;49.406;19.484;2024-03-02T07:00:34;5.90;99.90
19952;DHT22;10137;49.406;19.484;2024-03-02T07:03:01;6.00;99.90
19952;DHT22;10137;49.406;19.484;2024-03-02T07:05:28;6.00;99.90
19952;DHT22;10137;49.406;19.484;2024-03-02T07:07:54;5.90;99.90
19952;DHT22;10137;49.406;19.484;2024-03-02T07:10:21;6.00;99.90
19952;DHT22;10137;49.406;19.484;2024-03-02T07:12:48;5.90;99.90
19952;DHT22;10137;49.406;19.484;2024-03-02T07:15:16;5.90;99.90
19952;DHT22;10137;49.406;19.484;2024-03-02T07:18:09;5.90;99.90
19952;DHT22;10137;49.406;19.484;2024-03-02T07:20:36;5.90;99.90
19952;DHT22;10137;49.406;19.484;2024-03-02T07:23:04;5.90;99.90
19952;DHT22;10137;49.406;19.484;2024-03-02T07:25:32;5.80;99.90
19952;DHT22;10137;49.406;19.484;2024-03-02T07:27:59;5.90;99.90
19952;DHT22;10137;49.406;19.484;2024-03-02T07:30:27;5.90;99.90
19952;DHT22;10137;49.406;19.484;2024-03-02T07:32:54;6.00;99.90
19952;DHT22;10137;49.406;19.484;2024-03-02T07:35:20;6.00;99.90
19952;DHT22;10137;49.406;19.484;2024-03-02T07:37:52;6.10;99.90
19952;DHT22;10137;49.406;19.484;2024-03-02T07:40:19;6.20;99.90
19952;DHT22;10137;49.406;19.484;2024-03-02T07:42:45;6.30;99.90
19952;DHT22;10137;49.406;19.484;2024-03-02T07:45:12;6.40;99.90
19952;DHT22;10137;49.406;19.484;2024-03-02T07:47:41;6.40;99.90
19952;DHT22;10137;49.406;19.484;2024-03-02T07:50:08;6.50;99.90
19952;DHT22;10137;49.406;19.484;2024-03-02T07:52:35;6.50;99.90
19952;DHT22;10137;49.406;19.484;2024-03-02T07:55:03;6.60;99.90
19952;DHT22;10137;49.406;19.484;2024-03-02T07:57:31;6.60;99.90
19952;DHT22;10137;49.406;19.484;2024-03-02T07:59:58;6.60;99.90
19952;DHT22;10137;49.406;19.484;2024-03-02T08:02:25;6.60;99.90
19952;DHT22;10137;49.406;19.484;2024-03-02T08:04:53;6.70;99.90
19952;DHT22;10137;49.406;19.484;2024-03-02T08:07:20;6.70;99.90
19952;DHT22;10137;49.406;19.484;2024-03-02T08:09:47;6.80;99.90
19952;DHT22;10137;49.406;19.484;2024-03-02T08:12:14;6.80;99.90
19952;DHT22;10137;49.406;19.484;2024-03-02T08:14:41;6.80;99.90
19952;DHT22;10137;49.406;19.484;2024-03-02T08:17:08;6.90;99.90
19952;DHT22;10137;49.406;19.484;2024-03-02T08:19:37;6.90;99.90
19952;DHT22;10137;49.406;19.484;2024-03-02T08:22:05;6.90;99.90
19952;DHT22;10137;49.406;19.484;2024-03-02T08:24:32;6.90;99.90
19952;DHT22;10137;49.406;19.484;2024-03-02T08:26:59;6.90;99.90
19952;DHT22;10137;49.406;19.484;2024-03-02T08:29:26;6.90;99.90
19952;DHT22;10137;49.406;19.484;2024-03-02T08:31:53;6.90;99.90
19952;DHT22;10137;49.406;19.484;2024-03-02T08:34:20;7.00;99.90
19952;DHT22;10137;49.406;19.484;2024-03-02T08:36:47;7.00;99.90
19952;DHT22;10137;49.406;19.484;2024-03-02T08:39:15;7.00;99.90
19952;DHT22;10137;49.406;19.484;2024-03-02T08:41:44;7.00;99.90
19952;DHT22;10137;49.406;19.484;2024-03-02T08:44:10;7.00;99.90
19952;DHT22;10137;49.406;19.484;2024-03-02T08:46:37;7.10;99.90
19952;DHT22;10137;49.406;19.484;2024-03-02T08:49:04;7.10;99.90
19952;DHT22;10137;49.406;19.484;2024-03-02T08:51:31;7.10;99.90
19952;DHT22;10137;49.406;19.484;2024-03-02T08:53:58;7.20;99.90
19952;DHT22;10137;49.406;19.484;2024-03-02T08:56:26;7.20;99.90
19952;DHT22;10137;49.406;19.484;2024-03-02T08:58:53;7.20;99.90
19952;DHT22;10137;49.406;19.484;2024-03-02T09:01:20;7.20;99.90
19952;DHT22;10137;49.406;19.484;2024-03-02T09:03:47;7.20;99.90
19952;DHT22;10137;49.406;19.484;2024-03-02T09:06:15;7.20;99.90
19952;DHT22;10137;49.406;19.484;2024-03-02T09:08:43;7.20;99.90
19952;DHT22;10137;49.406;19.484;2024-03-02T09:11:10;7.20;99.90
19952;DHT22;10137;49.406;19.484;2024-03-02T09:13:39;7.20;99.90
19952;DHT22;10137;49.406;19.484;2024-03-02T09:16:06;7.20;99.90
19952;DHT22;10137;49.406;19.484;2024-03-02T09:18:36;7.20;99.90
19952;DHT22;10137;49.406;19.484;2024-03-02T09:21:04;7.20;99.90
19952;DHT22;10137;49.406;19.484;2024-03-02T09:23:31;7.20;99.90
19952;DHT22;10137;49.406;19.484;2024-03-02T09:25:58;7.20;99.90
19952;DHT22;10137;49.406;19.484;2024-03-02T09:28:25;7.20;99.90
19952;DHT22;10137;49.406;19.484;2024-03-02T09:30:53;7.20;99.90
19952;DHT22;10137;49.406;19.484;2024-03-02T09:33:20;7.20;99.90
19952;DHT22;10137;49.406;19.484;2024-03-02T09:35:47;7.30;99.90
19952;DHT22;10137;49.406;19.484;2024-03-02T09:38:14;7.30;99.90
19952;DHT22;10137;49.406;19.484;2024-03-02T09:40:41;7.40;99.90
19952;DHT22;10137;49.406;19.484;2024-03-02T09:43:09;7.40;99.90
19952;DHT22;10137;49.406;19.484;2024-03-02T09:45:36;7.40;99.90
19952;DHT22;10137;49.406;19.484;2024-03-02T09:48:05;7.40;99.90
19952;DHT22;10137;49.406;19.484;2024-03-02T09:50:32;7.40;99.90
19952;DHT22;10137;49.406;19.484;2024-03-02T09:52:59;7.40;99.90
19952;DHT22;10137;49.406;19.484;2024-03-02T09:55:26;7.40;99.90
19952;DHT22;10137;49.406;19.484;2024-03-02T09:57:53;7.40;99.90
19952;DHT22;10137;49.406;19.484;2024-03-02T10:00:21;7.40;99.90
19952;DHT22;10137;49.406;19.484;2024-03-02T10:02:48;7.40;99.90
19952;DHT22;10137;49.406;19.484;2024-03-02T10:05:25;7.50;99.90
19952;DHT22;10137;49.406;19.484;2024-03-02T10:08:03;7.50;99.90
19952;DHT22;10137;49.406;19.484;2024-03-02T10:10:37;7.50;99.90
19952;DHT22;10137;49.406;19.484;2024-03-02T10:13:06;7.60;99.90
19952;DHT22;10137;49.406;19.484;2024-03-02T10:15:34;7.60;99.90
19952;DHT22;10137;49.406;19.484;2024-03-02T10:18:01;7.60;99.90
19952;DHT22;10137;49.406;19.484;2024-03-02T10:20:30;7.60;99.90
19952;DHT22;10137;49.406;19.484;2024-03-02T10:23:10;7.60;99.90
19952;DHT22;10137;49.406;19.484;2024-03-02T10:25:37;7.60;99.90
19952;DHT22;10137;49.406;19.484;2024-03-02T10:28:04;7.60;99.90
19952;DHT22;10137;49.406;19.484;2024-03-02T10:30:32;7.50;99.90
19952;DHT22;10137;49.406;19.484;2024-03-02T10:33:00;7.50;99.90
19952;DHT22;10137;49.406;19.484;2024-03-02T10:35:27;7.50;99.90
19952;DHT22;10137;49.406;19.484;2024-03-02T10:37:55;7.50;99.90
19952;DHT22;10137;49.406;19.484;2024-03-02T10:40:22;7.60;99.90
19952;DHT22;10137;49.406;19.484;2024-03-02T10:42:49;7.60;99.90
19952;DHT22;10137;49.406;19.484;2024-03-02T10:45:17;7.70;99.90
19952;DHT22;10137;49.406;19.484;2024-03-02T10:47:45;7.70;99.90
19952;DHT22;10137;49.406;19.484;2024-03-02T10:50:13;7.80;99.90
19952;DHT22;10137;49.406;19.484;2024-03-02T10:52:40;7.90;99.90
19952;DHT22;10137;49.406;19.484;2024-03-02T10:55:10;7.90;99.90
19952;DHT22;10137;49.406;19.484;2024-03-02T10:57:41;8.00;99.90
19952;DHT22;10137;49.406;19.484;2024-03-02T11:00:12;8.00;99.90
19952;DHT22;10137;49.406;19.484;2024-03-02T11:02:45;8.00;99.90
19952;DHT22;10137;49.406;19.484;2024-03-02T11:05:17;8.10;99.90
19952;DHT22;10137;49.406;19.484;2024-03-02T11:07:45;8.10;99.90
19952;DHT22;10137;49.406;19.484;2024-03-02T11:10:15;8.10;99.90
19952;DHT22;10137;49.406;19.484;2024-03-02T11:12:50;8.20;99.90
19952;DHT22;10137;49.406;19.484;2024-03-02T11:15:20;8.20;99.90
19952;DHT22;10137;49.406;19.484;2024-03-02T11:17:47;8.20;99.90
19952;DHT22;10137;49.406;19.484;2024-03-02T11:20:14;8.30;99.90
19952;DHT22;10137;49.406;19.484;2024-03-02T11:22:44;8.30;99.90
19952;DHT22;10137;49.406;19.484;2024-03-02T11:25:25;8.30;99.90
19952;DHT22;10137;49.406;19.484;2024-03-02T11:28:02;8.40;99.90
19952;DHT22;10137;49.406;19.484;2024-03-02T11:30:51;8.40;99.90
19952;DHT22;10137;49.406;19.484;2024-03-02T11:33:25;8.50;99.90
19952;DHT22;10137;49.406;19.484;2024-03-02T11:35:56;8.60;99.90
19952;DHT22;10137;49.406;19.484;2024-03-02T11:38:31;8.60;99.90
19952;DHT22;10137;49.406;19.484;2024-03-02T11:41:01;8.60;99.90
19952;DHT22;10137;49.406;19.484;2024-03-02T11:43:28;8.70;99.90
19952;DHT22;10137;49.406;19.484;2024-03-02T11:45:59;8.60;99.90
19952;DHT22;10137;49.406;19.484;2024-03-02T11:48:29;8.60;99.90
19952;DHT22;10137;49.406;19.484;2024-03-02T11:50:58;8.50;99.90
19952;DHT22;10137;49.406;19.484;2024-03-02T11:53:27;8.40;99.90
19952;DHT22;10137;49.406;19.484;2024-03-02T11:55:55;8.40;99.90
19952;DHT22;10137;49.406;19.484;2024-03-02T11:58:24;8.40;99.90
19952;DHT22;10137;49.406;19.484;2024-03-02T12:00:52;8.40;99.90
19952;DHT22;10137;49.406;19.484;2024-03-02T12:03:21;8.40;99.90
19952;DHT22;10137;49.406;19.484;2024-03-02T12:05:49;8.40;99.90
19952;DHT22;10137;49.406;19.484;2024-03-02T12:08:16;8.50;99.90
19952;DHT22;10137;49.406;19.484;2024-03-02T12:10:43;8.50;99.90
19952;DHT22;10137;49.406;19.484;2024-03-02T12:13:23;8.50;99.90
19952;DHT22;10137;49.406;19.484;2024-03-02T12:15:53;8.50;99.90
19952;DHT22;10137;49.406;19.484;2024-03-02T12:18:20;8.60;99.90
19952;DHT22;10137;49.406;19.484;2024-03-02T12:20:49;8.60;99.90
19952;DHT22;10137;49.406;19.484;2024-03-02T12:23:18;8.60;99.90
19952;DHT22;10137;49.406;19.484;2024-03-02T12:25:45;8.50;99.90
19952;DHT22;10137;49.406;19.484;2024-03-02T12:28:12;8.50;99.90
19952;DHT22;10137;49.406;19.484;2024-03-02T12:30:41;8.50;99.90
19952;DHT22;10137;49.406;19.484;2024-03-02T12:33:08;8.50;99.90
19952;DHT22;10137;49.406;19.484;2024-03-02T12:35:36;8.60;99.90
19952;DHT22;10137;49.406;19.484;2024-03-02T12:38:03;8.60;99.90
19952;DHT22;10137;49.406;19.484;2024-03-02T12:40:30;8.60;99.90
19952;DHT22;10137;49.406;19.484;2024-03-02T12:42:57;8.60;99.90
19952;DHT22;10137;49.406;19.484;2024-03-02T12:45:24;8.70;99.90
19952;DHT22;10137;49.406;19.484;2024-03-02T12:47:53;8.70;99.90
19952;DHT22;10137;49.406;19.484;2024-03-02T12:50:20;8.70;99.90
19952;DHT22;10137;49.406;19.484;2024-03-02T12:52:51;8.70;99.90
19952;DHT22;10137;49.406;19.484;2024-03-02T12:55:20;8.70;99.90
19952;DHT22;10137;49.406;19.484;2024-03-02T12:57:49;8.70;99.90
19952;DHT22;10137;49.406;19.484;2024-03-02T13:00:18;8.80;99.90
19952;DHT22;10137;49.406;19.484;2024-03-02T13:02:46;8.80;99.90
19952;DHT22;10137;49.406;19.484;2024-03-02T13:05:14;8.80;99.90
19952;DHT22;10137;49.406;19.484;2024-03-02T13:07:41;8.90;99.90
19952;DHT22;10137;49.406;19.484;2024-03-02T13:10:08;8.90;99.90
19952;DHT22;10137;49.406;19.484;2024-03-02T13:12:36;8.80;99.90
19952;DHT22;10137;49.406;19.484;2024-03-02T13:15:03;8.90;99.90
19952;DHT22;10137;49.406;19.484;2024-03-02T13:17:31;8.90;99.90
19952;DHT22;10137;49.406;19.484;2024-03-02T13:19:59;9.00;99.90
19952;DHT22;10137;49.406;19.484;2024-03-02T13:22:28;9.00;99.90
19952;DHT22;10137;49.406;19.484;2024-03-02T13:24:54;9.10;99.90
19952;DHT22;10137;49.406;19.484;2024-03-02T13:27:21;9.10;99.90
19952;DHT22;10137;49.406;19.484;2024-03-02T13:29:49;9.10;99.90
19952;DHT22;10137;49.406;19.484;2024-03-02T13:32:16;9.10;99.90
19952;DHT22;10137;49.406;19.484;2024-03-02T13:34:46;9.10;99.90
19952;DHT22;10137;49.406;19.484;2024-03-02T13:37:13;9.10;99.90
19952;DHT22;10137;49.406;19.484;2024-03-02T13:39:41;9.10;99.90
19952;DHT22;10137;49.406;19.484;2024-03-02T13:42:08;9.00;99.90
19952;DHT22;10137;49.406;19.484;2024-03-02T13:44:36;9.00;99.90
19952;DHT22;10137;49.406;19.484;2024-03-02T13:47:03;9.00;99.90
19952;DHT22;10137;49.406;19.484;2024-03-02T13:49:30;9.00;99.90
19952;DHT22;10137;49.406;19.484;2024-03-02T13:52:02;9.00;99.90
19952;DHT22;10137;49.406;19.484;2024-03-02T13:54:37;9.00;99.90
19952;DHT22;10137;49.406;19.484;2024-03-02T13:57:07;9.00;99.90
19952;DHT22;10137;49.406;19.484;2024-03-02T13:59:34;8.90;99.90
19952;DHT22;10137;49.406;19.484;2024-03-02T14:02:01;9.00;99.90
19952;DHT22;10137;49.406;19.484;2024-03-02T14:04:30;9.00;99.90
19952;DHT22;10137;49.406;19.484;2024-03-02T14:06:57;9.00;99.90
19952;DHT22;10137;49.406;19.484;2024-03-02T14:09:24;9.00;99.90
19952;DHT22;10137;49.406;19.484;2024-03-02T14:11:50;9.00;99.90
19952;DHT22;10137;49.406;19.484;2024-03-02T14:14:19;9.00;99.90
19952;DHT22;10137;49.406;19.484;2024-03-02T14:16:46;9.00;99.90
19952;DHT22;10137;49.406;19.484;2024-03-02T14:19:13;9.10;99.90
19952;DHT22;10137;49.406;19.484;2024-03-02T14:21:40;9.10;99.90
19952;DHT22;10137;49.406;19.484;2024-03-02T14:24:07;9.20;99.90
19952;DHT22;10137;49.406;19.484;2024-03-02T14:26:35;9.20;99.90
19952;DHT22;10137;49.406;19.484;2024-03-02T14:29:02;9.20;99.90
19952;DHT22;10137;49.406;19.484;2024-03-02T14:31:31;9.20;99.90
19952;DHT22;10137;49.406;19.484;2024-03-02T14:33:57;9.20;99.90
19952;DHT22;10137;49.406;19.484;2024-03-02T14:36:25;9.30;99.90
19952;DHT22;10137;49.406;19.484;2024-03-02T14:38:53;9.30;99.90
19952;DHT22;10137;49.406;19.484;2024-03-02T14:41:20;9.30;99.90
19952;DHT22;10137;49.406;19.484;2024-03-02T14:43:47;9.30;99.90
19952;DHT22;10137;49.406;19.484;2024-03-02T14:46:15;9.30;99.90
19952;DHT22;10137;49.406;19.484;2024-03-02T14:48:44;9.40;99.90
19952;DHT22;10137;49.406;19.484;2024-03-02T14:51:12;9.40;99.90
19952;DHT22;10137;49.406;19.484;2024-03-02T14:53:39;9.40;99.90
19952;DHT22;10137;49.406;19.484;2024-03-02T14:56:06;9.40;99.90
19952;DHT22;10137;49.406;19.484;2024-03-02T14:58:33;9.40;99.90
19952;DHT22;10137;49.406;19.484;2024-03-02T15:01:01;9.40;99.90
19952;DHT22;10137;49.406;19.484;2024-03-02T15:03:28;9.30;99.90
19952;DHT22;10137;49.406;19.484;2024-03-02T15:05:56;9.20;99.90
19952;DHT22;10137;49.406;19.484;2024-03-02T15:08:23;9.20;99.90
19952;DHT22;10137;49.406;19.484;2024-03-02T15:10:50;9.10;99.90
19952;DHT22;10137;49.406;19.484;2024-03-02T15:13:17;9.10;99.90
19952;DHT22;10137;49.406;19.484;2024-03-02T15:15:44;9.10;99.90
19952;DHT22;10137;49.406;19.484;2024-03-02T15:18:11;9.00;99.90
19952;DHT22;10137;49.406;19.484;2024-03-02T15:20:38;9.00;99.90
19952;DHT22;10137;49.406;19.484;2024-03-02T15:23:07;8.90;99.90
19952;DHT22;10137;49.406;19.484;2024-03-02T15:25:34;8.90;99.90
19952;DHT22;10137;49.406;19.484;2024-03-02T15:28:01;8.90;99.90
19952;DHT22;10137;49.406;19.484;2024-03-02T15:30:28;9.00;99.90
19952;DHT22;10137;49.406;19.484;2024-03-02T15:32:55;9.00;99.90
19952;DHT22;10137;49.406;19.484;2024-03-02T15:35:22;9.00;99.90